sensor_id;sensor_type;location;lat;lon;timestamp;pressure;altitude;pressure_sealevel;temperature;humidity
60055;BME280;45930;53.514;55.904;2023-01-01T00:00:54;49722.28;;;-149.77;92.65
60055;BME280;45930;53.514;55.904;2023-01-01T00:01:55;49706.41;;;-149.77;92.45
60055;BME280;45930;53.514;55.904;2023-01-01T00:02:56;49712.38;;;-149.77;92.49
60055;BME280;45930;53.514;55.904;2023-01-01T00:03:58;49710.38;;;-149.77;92.39
60055;BME280;45930;53.514;55.904;2023-01-01T00:04:59;49730.19;;;-149.77;92.23
60055;BME280;45930;53.514;55.904;2023-01-01T00:06:08;49704.44;;;-149.77;91.70
60055;BME280;45930;53.514;55.904;2023-01-01T00:07:09;49742.09;;;-149.77;91.41
60055;BME280;45930;53.514;55.904;2023-01-01T00:08:10;49720.28;;;-149.77;91.27
60055;BME280;45930;53.514;55.904;2023-01-01T00:09:10;49684.63;;;-149.77;91.37
60055;BME280;45930;53.514;55.904;2023-01-01T00:10:30;49734.16;;;-149.77;90.84
60055;BME280;45930;53.514;55.904;2023-01-01T00:11:30;49708.41;;;-149.77;91.01
60055;BME280;45930;53.514;55.904;2023-01-01T00:12:32;49732.19;;;-149.77;90.67
60055;BME280;45930;53.514;55.904;2023-01-01T00:13:34;49738.13;;;-149.77;90.39
60055;BME280;45930;53.514;55.904;2023-01-01T00:14:35;49730.19;;;-149.77;90.12
60055;BME280;45930;53.514;55.904;2023-01-01T00:15:36;49742.09;;;-149.77;90.19
60055;BME280;45930;53.514;55.904;2023-01-01T00:16:38;49746.03;;;-149.77;89.95
60055;BME280;45930;53.514;55.904;2023-01-01T00:17:39;49720.28;;;-149.77;89.87
60055;BME280;45930;53.514;55.904;2023-01-01T00:18:39;49708.41;;;-149.77;89.88
60055;BME280;45930;53.514;55.904;2023-01-01T00:19:41;49698.50;;;-149.77;89.94
60055;BME280;45930;53.514;55.904;2023-01-01T00:20:42;49734.16;;;-149.77;90.34
60055;BME280;45930;53.514;55.904;2023-01-01T00:21:43;49734.16;;;-149.77;90.40
60055;BME280;45930;53.514;55.904;2023-01-01T00:22:43;49708.41;;;-149.77;90.47
60055;BME280;45930;53.514;55.904;2023-01-01T00:23:44;49726.22;;;-149.77;90.66
60055;BME280;45930;53.514;55.904;2023-01-01T00:24:45;49734.16;;;-149.77;90.41
60055;BME280;45930;53.514;55.904;2023-01-01T00:25:46;49742.09;;;-149.77;89.99
60055;BME280;45930;53.514;55.904;2023-01-01T00:26:46;49716.31;;;-149.77;89.62
60055;BME280;45930;53.514;55.904;2023-01-01T00:27:47;49763.88;;;-149.77;89.64
60055;BME280;45930;53.514;55.904;2023-01-01T00:28:48;49724.25;;;-149.77;89.80
60055;BME280;45930;53.514;55.904;2023-01-01T00:29:49;49702.47;;;-149.77;89.65
60055;BME280;45930;53.514;55.904;2023-01-01T00:30:50;49710.38;;;-149.77;89.45
60055;BME280;45930;53.514;55.904;2023-01-01T00:31:50;49720.28;;;-149.77;88.97
60055;BME280;45930;53.514;55.904;2023-01-01T00:32:51;49753.97;;;-149.77;89.04
60055;BME280;45930;53.514;55.904;2023-01-01T00:33:54;49740.09;;;-149.77;89.31
60055;BME280;45930;53.514;55.904;2023-01-01T00:34:54;49742.09;;;-149.77;87.11
60055;BME280;45930;53.514;55.904;2023-01-01T00:35:55;49755.94;;;-149.77;87.97
60055;BME280;45930;53.514;55.904;2023-01-01T00:36:56;49728.22;;;-149.77;87.41
60055;BME280;45930;53.514;55.904;2023-01-01T00:37:57;49753.97;;;-149.77;87.41
60055;BME280;45930;53.514;55.904;2023-01-01T00:38:58;49753.97;;;-149.77;88.87
60055;BME280;45930;53.514;55.904;2023-01-01T00:39:58;49759.91;;;-149.77;89.40
60055;BME280;45930;53.514;55.904;2023-01-01T00:40:59;49734.16;;;-149.77;89.29
60055;BME280;45930;53.514;55.904;2023-01-01T00:42:00;49700.47;;;-149.77;89.17
60055;BME280;45930;53.514;55.904;2023-01-01T00:43:01;49757.94;;;-149.77;89.07
60055;BME280;45930;53.514;55.904;2023-01-01T00:44:02;49750.00;;;-149.77;89.02
60055;BME280;45930;53.514;55.904;2023-01-01T00:45:03;49738.13;;;-149.77;89.23
60055;BME280;45930;53.514;55.904;2023-01-01T00:46:05;49740.09;;;-149.77;88.76
60055;BME280;45930;53.514;55.904;2023-01-01T00:47:06;49732.19;;;-149.77;88.56
60055;BME280;45930;53.514;55.904;2023-01-01T00:48:06;49750.00;;;-149.77;88.44
60055;BME280;45930;53.514;55.904;2023-01-01T00:49:07;49726.22;;;-149.77;87.79
60055;BME280;45930;53.514;55.904;2023-01-01T00:50:08;49753.97;;;-149.77;87.14
60055;BME280;45930;53.514;55.904;2023-01-01T00:51:09;49744.06;;;-149.77;88.50
60055;BME280;45930;53.514;55.904;2023-01-01T00:52:10;49757.94;;;-149.77;88.75
60055;BME280;45930;53.514;55.904;2023-01-01T00:53:11;49755.94;;;-149.77;88.98
60055;BME280;45930;53.514;55.904;2023-01-01T00:54:11;49746.03;;;-149.77;88.75
60055;BME280;45930;53.514;55.904;2023-01-01T00:55:13;49726.22;;;-149.77;88.11
60055;BME280;45930;53.514;55.904;2023-01-01T00:56:13;49740.09;;;-149.77;88.71
60055;BME280;45930;53.514;55.904;2023-01-01T00:57:14;49732.19;;;-149.77;89.02
60055;BME280;45930;53.514;55.904;2023-01-01T00:58:16;49718.31;;;-149.77;89.44
60055;BME280;45930;53.514;55.904;2023-01-01T00:59:17;49753.97;;;-149.77;89.52
60055;BME280;45930;53.514;55.904;2023-01-01T01:00:18;49728.22;;;-149.77;89.44
60055;BME280;45930;53.514;55.904;2023-01-01T01:01:19;49748.03;;;-149.77;89.19
60055;BME280;45930;53.514;55.904;2023-01-01T01:02:20;49753.97;;;-149.77;88.89
60055;BME280;45930;53.514;55.904;2023-01-01T01:03:21;49753.97;;;-149.77;88.90
60055;BME280;45930;53.514;55.904;2023-01-01T01:04:28;49738.13;;;-149.77;88.87
60055;BME280;45930;53.514;55.904;2023-01-01T01:05:30;49722.28;;;-149.77;89.20
60055;BME280;45930;53.514;55.904;2023-01-01T01:06:31;49736.13;;;-149.77;88.97
60055;BME280;45930;53.514;55.904;2023-01-01T01:07:34;49742.09;;;-149.77;89.47
60055;BME280;45930;53.514;55.904;2023-01-01T01:08:39;49748.03;;;-149.77;88.25
60055;BME280;45930;53.514;55.904;2023-01-01T01:09:40;49753.97;;;-149.77;89.53
60055;BME280;45930;53.514;55.904;2023-01-01T01:10:41;49750.00;;;-149.77;90.43
60055;BME280;45930;53.514;55.904;2023-01-01T01:11:41;49769.81;;;-149.77;90.79
60055;BME280;45930;53.514;55.904;2023-01-01T01:12:42;49748.03;;;-149.77;90.82
60055;BME280;45930;53.514;55.904;2023-01-01T01:13:45;49722.28;;;-149.77;90.32
60055;BME280;45930;53.514;55.904;2023-01-01T01:14:46;49710.38;;;-149.77;89.96
60055;BME280;45930;53.514;55.904;2023-01-01T01:15:47;49726.22;;;-149.77;91.23
60055;BME280;45930;53.514;55.904;2023-01-01T01:16:47;49698.50;;;-149.77;92.44
60055;BME280;45930;53.514;55.904;2023-01-01T01:17:48;49742.09;;;-149.77;92.65
60055;BME280;45930;53.514;55.904;2023-01-01T01:18:55;49718.31;;;-149.77;92.64
60055;BME280;45930;53.514;55.904;2023-01-01T01:19:57;49714.34;;;-149.77;92.41
60055;BME280;45930;53.514;55.904;2023-01-01T01:20:57;49698.50;;;-149.77;91.46
60055;BME280;45930;53.514;55.904;2023-01-01T01:21:58;49698.50;;;-149.77;92.20
60055;BME280;45930;53.514;55.904;2023-01-01T01:22:59;49746.03;;;-149.77;91.53
60055;BME280;45930;53.514;55.904;2023-01-01T01:24:02;49722.28;;;-149.77;91.58
60055;BME280;45930;53.514;55.904;2023-01-01T01:25:03;49730.19;;;-149.77;91.52
60055;BME280;45930;53.514;55.904;2023-01-01T01:26:12;49757.94;;;-149.77;91.18
60055;BME280;45930;53.514;55.904;2023-01-01T01:27:13;49734.16;;;-149.77;90.29
60055;BME280;45930;53.514;55.904;2023-01-01T01:28:14;49744.06;;;-149.77;90.02
60055;BME280;45930;53.514;55.904;2023-01-01T01:29:15;49714.34;;;-149.77;89.71
60055;BME280;45930;53.514;55.904;2023-01-01T01:30:15;49753.97;;;-149.77;88.16
60055;BME280;45930;53.514;55.904;2023-01-01T01:31:17;49742.09;;;-149.77;88.04
60055;BME280;45930;53.514;55.904;2023-01-01T01:32:19;49767.84;;;-149.77;88.49
60055;BME280;45930;53.514;55.904;2023-01-01T01:33:20;49726.22;;;-149.77;88.15
60055;BME280;45930;53.514;55.904;2023-01-01T01:34:20;49740.09;;;-149.77;88.44
60055;BME280;45930;53.514;55.904;2023-01-01T01:35:21;49722.28;;;-149.77;88.76
60055;BME280;45930;53.514;55.904;2023-01-01T01:36:22;49728.22;;;-149.77;90.34
60055;BME280;45930;53.514;55.904;2023-01-01T01:37:24;49714.34;;;-149.77;93.41
60055;BME280;45930;53.514;55.904;2023-01-01T01:38:24;49716.31;;;-149.77;92.10
60055;BME280;45930;53.514;55.904;2023-01-01T01:39:25;49704.44;;;-149.77;96.45
60055;BME280;45930;53.514;55.904;2023-01-01T01:40:26;49742.09;;;-149.77;94.43
60055;BME280;45930;53.514;55.904;2023-01-01T01:41:27;49704.44;;;-149.77;98.79
60055;BME280;45930;53.514;55.904;2023-01-01T01:42:28;49670.75;;;-149.77;99.65
60055;BME280;45930;53.514;55.904;2023-01-01T01:46:03;49676.72;;;-149.77;100.00
60055;BME280;45930;53.514;55.904;2023-01-01T01:47:11;49635.09;;;-149.77;100.00
60055;BME280;45930;53.514;55.904;2023-01-01T01:48:15;49658.88;;;-149.77;99.58
60055;BME280;45930;53.514;55.904;2023-01-01T01:49:20;49686.63;;;-149.77;96.04
60055;BME280;45930;53.514;55.904;2023-01-01T01:51:36;49682.66;;;-149.77;99.90
60055;BME280;45930;53.514;55.904;2023-01-01T01:52:41;49678.69;;;-149.77;99.14
60055;BME280;45930;53.514;55.904;2023-01-01T01:53:49;49660.84;;;-149.77;97.42
60055;BME280;45930;53.514;55.904;2023-01-01T01:54:51;49690.56;;;-149.77;97.18
60055;BME280;45930;53.514;55.904;2023-01-01T01:55:56;49684.63;;;-149.77;96.32
60055;BME280;45930;53.514;55.904;2023-01-01T01:57:04;49702.47;;;-149.77;93.97
60055;BME280;45930;53.514;55.904;2023-01-01T01:58:06;49710.38;;;-149.77;95.08
60055;BME280;45930;53.514;55.904;2023-01-01T01:59:08;49702.47;;;-149.77;95.28
60055;BME280;45930;53.514;55.904;2023-01-01T02:00:10;49706.41;;;-149.77;95.28
60055;BME280;45930;53.514;55.904;2023-01-01T02:01:11;49708.41;;;-149.77;94.70
60055;BME280;45930;53.514;55.904;2023-01-01T02:02:26;49688.59;;;-149.77;94.37
60055;BME280;45930;53.514;55.904;2023-01-01T02:03:35;49702.47;;;-149.77;94.39
60055;BME280;45930;53.514;55.904;2023-01-01T02:04:40;49682.66;;;-149.77;93.99
60055;BME280;45930;53.514;55.904;2023-01-01T02:05:42;49702.47;;;-149.77;92.53
60055;BME280;45930;53.514;55.904;2023-01-01T02:06:43;49686.63;;;-149.77;93.30
60055;BME280;45930;53.514;55.904;2023-01-01T02:07:45;49708.41;;;-149.77;95.18
60055;BME280;45930;53.514;55.904;2023-01-01T02:08:48;49736.13;;;-149.77;95.08
60055;BME280;45930;53.514;55.904;2023-01-01T02:09:49;49704.44;;;-149.77;95.26
60055;BME280;45930;53.514;55.904;2023-01-01T02:10:50;49714.34;;;-149.77;95.13
60055;BME280;45930;53.514;55.904;2023-01-01T02:11:51;49690.56;;;-149.77;97.08
60055;BME280;45930;53.514;55.904;2023-01-01T02:12:52;49694.53;;;-149.77;98.27
60055;BME280;45930;53.514;55.904;2023-01-01T02:13:55;49702.47;;;-149.77;97.93
60055;BME280;45930;53.514;55.904;2023-01-01T02:14:57;49690.56;;;-149.77;96.90
60055;BME280;45930;53.514;55.904;2023-01-01T02:16:12;49706.41;;;-149.77;96.23
60055;BME280;45930;53.514;55.904;2023-01-01T02:18:48;49698.50;;;-149.77;95.40
60055;BME280;45930;53.514;55.904;2023-01-01T02:20:18;49734.16;;;-149.77;94.12
60055;BME280;45930;53.514;55.904;2023-01-01T02:21:30;49682.66;;;-149.77;95.99
60055;BME280;45930;53.514;55.904;2023-01-01T02:23:14;49716.31;;;-149.77;95.06
60055;BME280;45930;53.514;55.904;2023-01-01T02:24:33;49694.53;;;-149.77;98.64
60055;BME280;45930;53.514;55.904;2023-01-01T02:26:39;49694.53;;;-149.77;97.83
60055;BME280;45930;53.514;55.904;2023-01-01T02:29:47;49722.28;;;-149.77;97.04
60055;BME280;45930;53.514;55.904;2023-01-01T02:30:51;49694.53;;;-149.77;98.96
60055;BME280;45930;53.514;55.904;2023-01-01T02:33:15;49696.53;;;-149.77;98.40
60055;BME280;45930;53.514;55.904;2023-01-01T02:34:20;49714.34;;;-149.77;99.10
60055;BME280;45930;53.514;55.904;2023-01-01T02:35:27;49700.47;;;-149.77;97.83
60055;BME280;45930;53.514;55.904;2023-01-01T02:36:39;49702.47;;;-149.77;98.25
60055;BME280;45930;53.514;55.904;2023-01-01T02:37:43;49678.69;;;-149.77;97.59
60055;BME280;45930;53.514;55.904;2023-01-01T02:38:51;49718.31;;;-149.77;96.80
60055;BME280;45930;53.514;55.904;2023-01-01T02:39:56;49710.38;;;-149.77;97.96
60055;BME280;45930;53.514;55.904;2023-01-01T02:41:01;49688.59;;;-149.77;98.25
60055;BME280;45930;53.514;55.904;2023-01-01T02:42:04;49672.75;;;-149.77;97.37
60055;BME280;45930;53.514;55.904;2023-01-01T02:43:06;49716.31;;;-149.77;97.43
60055;BME280;45930;53.514;55.904;2023-01-01T02:44:07;49740.09;;;-149.77;96.83
60055;BME280;45930;53.514;55.904;2023-01-01T02:45:09;49690.56;;;-149.77;97.40
60055;BME280;45930;53.514;55.904;2023-01-01T02:46:11;49688.59;;;-149.77;96.27
60055;BME280;45930;53.514;55.904;2023-01-01T02:47:17;49694.53;;;-149.77;96.35
60055;BME280;45930;53.514;55.904;2023-01-01T02:49:51;49712.38;;;-149.77;95.91
60055;BME280;45930;53.514;55.904;2023-01-01T02:50:55;49698.50;;;-149.77;95.42
60055;BME280;45930;53.514;55.904;2023-01-01T02:53:33;49720.28;;;-149.77;94.63
60055;BME280;45930;53.514;55.904;2023-01-01T02:54:45;49702.47;;;-149.77;94.67
60055;BME280;45930;53.514;55.904;2023-01-01T02:56:37;49722.28;;;-149.77;94.42
60055;BME280;45930;53.514;55.904;2023-01-01T02:57:49;49710.38;;;-149.77;96.92
60055;BME280;45930;53.514;55.904;2023-01-01T02:59:19;49702.47;;;-149.77;97.09
60055;BME280;45930;53.514;55.904;2023-01-01T03:00:35;49698.50;;;-149.77;97.09
60055;BME280;45930;53.514;55.904;2023-01-01T03:01:49;49714.34;;;-149.77;97.13
60055;BME280;45930;53.514;55.904;2023-01-01T03:03:22;49690.56;;;-149.77;95.71
60055;BME280;45930;53.514;55.904;2023-01-01T03:11:07;49686.63;;;-149.77;96.40
60055;BME280;45930;53.514;55.904;2023-01-01T03:12:31;49712.38;;;-149.77;96.37
60055;BME280;45930;53.514;55.904;2023-01-01T03:15:02;49722.28;;;-149.77;94.90
60055;BME280;45930;53.514;55.904;2023-01-01T03:17:40;49682.66;;;-149.77;93.63
60055;BME280;45930;53.514;55.904;2023-01-01T03:18:53;49720.28;;;-149.77;92.68
60055;BME280;45930;53.514;55.904;2023-01-01T03:20:15;49728.22;;;-149.77;93.25
60055;BME280;45930;53.514;55.904;2023-01-01T03:21:19;49734.16;;;-149.77;93.01
60055;BME280;45930;53.514;55.904;2023-01-01T03:22:27;49702.47;;;-149.77;92.94
60055;BME280;45930;53.514;55.904;2023-01-01T03:23:33;49732.19;;;-149.77;94.21
60055;BME280;45930;53.514;55.904;2023-01-01T03:25:15;49730.19;;;-149.77;93.76
60055;BME280;45930;53.514;55.904;2023-01-01T03:26:21;49752.00;;;-149.77;92.44
60055;BME280;45930;53.514;55.904;2023-01-01T03:27:27;49736.13;;;-149.77;91.03
60055;BME280;45930;53.514;55.904;2023-01-01T03:28:53;49771.78;;;-149.77;89.69
60055;BME280;45930;53.514;55.904;2023-01-01T03:29:56;49744.06;;;-149.77;90.22
60055;BME280;45930;53.514;55.904;2023-01-01T03:30:59;49744.06;;;-149.77;90.36
60055;BME280;45930;53.514;55.904;2023-01-01T03:32:01;49738.13;;;-149.77;92.15
60055;BME280;45930;53.514;55.904;2023-01-01T03:33:10;49718.31;;;-149.77;93.03
60055;BME280;45930;53.514;55.904;2023-01-01T03:34:19;49746.03;;;-149.77;92.32
60055;BME280;45930;53.514;55.904;2023-01-01T03:35:23;49724.25;;;-149.77;93.43
60055;BME280;45930;53.514;55.904;2023-01-01T03:36:31;49744.06;;;-149.77;92.20
60055;BME280;45930;53.514;55.904;2023-01-01T03:37:34;49726.22;;;-149.77;92.99
60055;BME280;45930;53.514;55.904;2023-01-01T03:38:59;49716.31;;;-149.77;92.95
60055;BME280;45930;53.514;55.904;2023-01-01T03:40:02;49763.88;;;-149.77;92.64
60055;BME280;45930;53.514;55.904;2023-01-01T03:41:22;49716.31;;;-149.77;92.95
60055;BME280;45930;53.514;55.904;2023-01-01T03:42:39;49738.13;;;-149.77;92.40
60055;BME280;45930;53.514;55.904;2023-01-01T03:43:48;49736.13;;;-149.77;92.25
60055;BME280;45930;53.514;55.904;2023-01-01T03:44:57;49750.00;;;-149.77;91.54
60055;BME280;45930;53.514;55.904;2023-01-01T03:46:03;49738.13;;;-149.77;91.08
60055;BME280;45930;53.514;55.904;2023-01-01T03:47:04;49742.09;;;-149.77;90.88
60055;BME280;45930;53.514;55.904;2023-01-01T03:48:06;49753.97;;;-149.77;91.75
60055;BME280;45930;53.514;55.904;2023-01-01T03:49:09;49730.19;;;-149.77;91.49
60055;BME280;45930;53.514;55.904;2023-01-01T03:50:11;49732.19;;;-149.77;90.91
60055;BME280;45930;53.514;55.904;2023-01-01T03:51:19;49753.97;;;-149.77;91.54
60055;BME280;45930;53.514;55.904;2023-01-01T03:52:59;49736.13;;;-149.77;91.53
60055;BME280;45930;53.514;55.904;2023-01-01T03:54:07;49771.78;;;-149.77;90.36
60055;BME280;45930;53.514;55.904;2023-01-01T03:55:35;49753.97;;;-149.77;88.10
60055;BME280;45930;53.514;55.904;2023-01-01T03:56:45;49785.66;;;-149.77;88.73
60055;BME280;45930;53.514;55.904;2023-01-01T03:57:56;49744.06;;;-149.77;88.62
60055;BME280;45930;53.514;55.904;2023-01-01T03:59:22;49700.47;;;-149.77;97.54
60055;BME280;45930;53.514;55.904;2023-01-01T04:00:28;49662.84;;;-149.77;99.63
60055;BME280;45930;53.514;55.904;2023-01-01T04:01:36;49676.72;;;-149.77;100.00
60055;BME280;45930;53.514;55.904;2023-01-01T04:03:43;49676.72;;;-149.77;100.00
60055;BME280;45930;53.514;55.904;2023-01-01T04:04:45;49718.31;;;-149.77;98.99
60055;BME280;45930;53.514;55.904;2023-01-01T04:05:46;49680.66;;;-149.77;99.78
60055;BME280;45930;53.514;55.904;2023-01-01T04:06:47;49668.78;;;-149.77;100.00
60055;BME280;45930;53.514;55.904;2023-01-01T04:07:49;49698.50;;;-149.77;98.84
60055;BME280;45930;53.514;55.904;2023-01-01T04:08:52;49694.53;;;-149.77;99.00
60055;BME280;45930;53.514;55.904;2023-01-01T04:09:59;49706.41;;;-149.77;100.00
60055;BME280;45930;53.514;55.904;2023-01-01T04:11:06;49672.75;;;-149.77;100.00
60055;BME280;45930;53.514;55.904;2023-01-01T04:12:28;49670.75;;;-149.77;100.00
60055;BME280;45930;53.514;55.904;2023-01-01T04:13:45;49678.69;;;-149.77;100.00
60055;BME280;45930;53.514;55.904;2023-01-01T04:14:45;49674.72;;;-149.77;100.00
60055;BME280;45930;53.514;55.904;2023-01-01T04:15:46;49672.75;;;-149.77;99.28
60055;BME280;45930;53.514;55.904;2023-01-01T04:16:47;49704.44;;;-149.77;100.00
60055;BME280;45930;53.514;55.904;2023-01-01T04:17:48;49676.72;;;-149.77;100.00
60055;BME280;45930;53.514;55.904;2023-01-01T04:18:49;49680.66;;;-149.77;100.00
60055;BME280;45930;53.514;55.904;2023-01-01T04:19:49;49672.75;;;-149.77;98.96
60055;BME280;45930;53.514;55.904;2023-01-01T04:20:50;49716.31;;;-149.77;99.28
60055;BME280;45930;53.514;55.904;2023-01-01T04:21:51;49712.38;;;-149.77;98.95
60055;BME280;45930;53.514;55.904;2023-01-01T04:22:58;49712.38;;;-149.77;96.68
60055;BME280;45930;53.514;55.904;2023-01-01T04:23:59;49702.47;;;-149.77;97.32
60055;BME280;45930;53.514;55.904;2023-01-01T04:25:00;49702.47;;;-149.77;98.57
60055;BME280;45930;53.514;55.904;2023-01-01T04:26:00;49704.44;;;-149.77;97.65
60055;BME280;45930;53.514;55.904;2023-01-01T04:27:01;49714.34;;;-149.77;95.78
60055;BME280;45930;53.514;55.904;2023-01-01T04:28:02;49700.47;;;-149.77;96.39
60055;BME280;45930;53.514;55.904;2023-01-01T04:29:03;49686.63;;;-149.77;95.54
60055;BME280;45930;53.514;55.904;2023-01-01T04:30:06;49702.47;;;-149.77;94.16
60055;BME280;45930;53.514;55.904;2023-01-01T04:31:08;49740.09;;;-149.77;94.37
60055;BME280;45930;53.514;55.904;2023-01-01T04:32:09;49730.19;;;-149.77;93.66
60055;BME280;45930;53.514;55.904;2023-01-01T04:33:10;49730.19;;;-149.77;91.79
60055;BME280;45930;53.514;55.904;2023-01-01T04:34:10;49744.06;;;-149.77;92.18
60055;BME280;45930;53.514;55.904;2023-01-01T04:35:12;49750.00;;;-149.77;91.92
60055;BME280;45930;53.514;55.904;2023-01-01T04:36:14;49720.28;;;-149.77;91.65
60055;BME280;45930;53.514;55.904;2023-01-01T04:37:14;49734.16;;;-149.77;91.19
60055;BME280;45930;53.514;55.904;2023-01-01T04:38:15;49757.94;;;-149.77;91.25
60055;BME280;45930;53.514;55.904;2023-01-01T04:39:16;49777.75;;;-149.77;91.17
60055;BME280;45930;53.514;55.904;2023-01-01T04:40:17;49752.00;;;-149.77;89.76
60055;BME280;45930;53.514;55.904;2023-01-01T04:41:18;49765.84;;;-149.77;89.13
60055;BME280;45930;53.514;55.904;2023-01-01T04:42:19;49757.94;;;-149.77;89.71
60055;BME280;45930;53.514;55.904;2023-01-01T04:43:19;49791.59;;;-149.77;89.65
60055;BME280;45930;53.514;55.904;2023-01-01T04:44:20;49734.16;;;-149.77;90.50
60055;BME280;45930;53.514;55.904;2023-01-01T04:45:21;49728.22;;;-149.77;91.51
60055;BME280;45930;53.514;55.904;2023-01-01T04:46:23;49744.06;;;-149.77;91.18
60055;BME280;45930;53.514;55.904;2023-01-01T04:47:24;49765.84;;;-149.77;90.54
60055;BME280;45930;53.514;55.904;2023-01-01T04:48:27;49753.97;;;-149.77;90.36
60055;BME280;45930;53.514;55.904;2023-01-01T04:49:28;49740.09;;;-149.77;90.01
60055;BME280;45930;53.514;55.904;2023-01-01T04:50:29;49767.84;;;-149.77;89.34
60055;BME280;45930;53.514;55.904;2023-01-01T04:51:30;49777.75;;;-149.77;87.39
60055;BME280;45930;53.514;55.904;2023-01-01T04:52:31;49779.72;;;-149.77;86.60
60055;BME280;45930;53.514;55.904;2023-01-01T04:53:33;49777.75;;;-149.77;87.58
60055;BME280;45930;53.514;55.904;2023-01-01T04:54:34;49755.94;;;-149.77;87.68
60055;BME280;45930;53.514;55.904;2023-01-01T04:55:35;49771.78;;;-149.77;88.34
60055;BME280;45930;53.514;55.904;2023-01-01T04:56:36;49761.88;;;-149.77;89.26
60055;BME280;45930;53.514;55.904;2023-01-01T04:57:36;49767.84;;;-149.77;88.47
60055;BME280;45930;53.514;55.904;2023-01-01T04:58:38;49773.78;;;-149.77;88.51
60055;BME280;45930;53.514;55.904;2023-01-01T04:59:40;49752.00;;;-149.77;89.04
60055;BME280;45930;53.514;55.904;2023-01-01T05:00:41;49767.84;;;-149.77;89.28
60055;BME280;45930;53.514;55.904;2023-01-01T05:01:41;49759.91;;;-149.77;89.32
60055;BME280;45930;53.514;55.904;2023-01-01T05:02:42;49785.66;;;-149.77;86.54
60055;BME280;45930;53.514;55.904;2023-01-01T05:03:43;49783.69;;;-149.77;86.74
60055;BME280;45930;53.514;55.904;2023-01-01T05:04:43;49753.97;;;-149.77;88.32
60055;BME280;45930;53.514;55.904;2023-01-01T05:05:44;49757.94;;;-149.77;88.18
60055;BME280;45930;53.514;55.904;2023-01-01T05:06:45;49755.94;;;-149.77;87.03
60055;BME280;45930;53.514;55.904;2023-01-01T05:07:46;49773.78;;;-149.77;86.93
60055;BME280;45930;53.514;55.904;2023-01-01T05:08:48;49777.75;;;-149.77;86.79
60055;BME280;45930;53.514;55.904;2023-01-01T05:09:50;49765.84;;;-149.77;85.79
60055;BME280;45930;53.514;55.904;2023-01-01T05:10:50;49738.13;;;-149.77;85.57
60055;BME280;45930;53.514;55.904;2023-01-01T05:11:53;49783.69;;;-149.77;84.37
60055;BME280;45930;53.514;55.904;2023-01-01T05:12:54;49763.88;;;-149.77;83.88
60055;BME280;45930;53.514;55.904;2023-01-01T05:13:58;49777.75;;;-149.77;84.58
60055;BME280;45930;53.514;55.904;2023-01-01T05:14:59;49757.94;;;-149.77;85.27
60055;BME280;45930;53.514;55.904;2023-01-01T05:16:07;49793.59;;;-149.77;83.32
60055;BME280;45930;53.514;55.904;2023-01-01T05:17:08;49795.56;;;-149.77;83.42
60055;BME280;45930;53.514;55.904;2023-01-01T05:18:09;49777.75;;;-149.77;84.13
60055;BME280;45930;53.514;55.904;2023-01-01T05:19:09;49777.75;;;-149.77;83.84
60055;BME280;45930;53.514;55.904;2023-01-01T05:20:11;49787.66;;;-149.77;83.95
60055;BME280;45930;53.514;55.904;2023-01-01T05:21:14;49781.69;;;-149.77;83.98
60055;BME280;45930;53.514;55.904;2023-01-01T05:22:15;49793.59;;;-149.77;83.18
60055;BME280;45930;53.514;55.904;2023-01-01T05:23:16;49777.75;;;-149.77;82.77
60055;BME280;45930;53.514;55.904;2023-01-01T05:24:17;49805.47;;;-149.77;82.67
60055;BME280;45930;53.514;55.904;2023-01-01T05:25:18;49773.78;;;-149.77;83.18
60055;BME280;45930;53.514;55.904;2023-01-01T05:26:20;49787.66;;;-149.77;82.12
60055;BME280;45930;53.514;55.904;2023-01-01T05:27:22;49775.75;;;-149.77;82.38
60055;BME280;45930;53.514;55.904;2023-01-01T05:28:23;49791.59;;;-149.77;81.66
60055;BME280;45930;53.514;55.904;2023-01-01T05:29:24;49775.75;;;-149.77;79.49
60055;BME280;45930;53.514;55.904;2023-01-01T05:30:25;49777.75;;;-149.77;79.57
60055;BME280;45930;53.514;55.904;2023-01-01T05:31:29;49781.69;;;-149.77;80.62
60055;BME280;45930;53.514;55.904;2023-01-01T05:32:30;49793.59;;;-149.77;79.53
60055;BME280;45930;53.514;55.904;2023-01-01T05:33:31;49783.69;;;-149.77;79.12
60055;BME280;45930;53.514;55.904;2023-01-01T05:34:31;49789.63;;;-149.77;77.58
60055;BME280;45930;53.514;55.904;2023-01-01T05:35:32;49789.63;;;-149.77;77.82
60055;BME280;45930;53.514;55.904;2023-01-01T05:36:36;49799.53;;;-149.77;78.35
60055;BME280;45930;53.514;55.904;2023-01-01T05:37:38;49811.41;;;-149.77;78.84
60055;BME280;45930;53.514;55.904;2023-01-01T05:38:39;49793.59;;;-149.77;77.38
60055;BME280;45930;53.514;55.904;2023-01-01T05:39:39;49791.59;;;-149.77;77.10
60055;BME280;45930;53.514;55.904;2023-01-01T05:40:40;49791.59;;;-149.77;74.14
60055;BME280;45930;53.514;55.904;2023-01-01T05:41:41;49811.41;;;-149.77;75.61
60055;BME280;45930;53.514;55.904;2023-01-01T05:42:42;49797.56;;;-149.77;76.58
60055;BME280;45930;53.514;55.904;2023-01-01T05:43:43;49742.09;;;-149.77;76.72
60055;BME280;45930;53.514;55.904;2023-01-01T05:44:44;49789.63;;;-149.77;75.82
60055;BME280;45930;53.514;55.904;2023-01-01T05:45:45;49809.44;;;-149.77;75.78
60055;BME280;45930;53.514;55.904;2023-01-01T05:46:46;49803.50;;;-149.77;74.17
60055;BME280;45930;53.514;55.904;2023-01-01T05:47:46;49799.53;;;-149.77;74.05
60055;BME280;45930;53.514;55.904;2023-01-01T05:48:48;49799.53;;;-149.77;72.50
60055;BME280;45930;53.514;55.904;2023-01-01T05:49:49;49789.63;;;-149.77;72.10
60055;BME280;45930;53.514;55.904;2023-01-01T05:50:49;49795.56;;;-149.77;70.35